Andersen Air Force Base
PGUA : now visible

Airfield :











YOU CAN JOIN US ON...

 
LOGIN :

Register | Disclaimer

   EN    FR    IT 

 









Legend :    VFR   Marginal VFR   IFR   Intensive IFR   Very Intensive IFR
Visi :
Ceiling :
>= 8 km
>= 3000ft
5 to 8 km
1000 to 3000 ft
1500m to 5 km
500 to 1000 ft
800 to 1500m
200 to 500 ft
< 800m
< 200 ft
Symbols :   Thunderstorms  Fog  Heavy snow  Heavy precipitations  Wind > 20 kt






- Airport Elevation : 627 ft
- IATA code : UAM


PGUA - Andersen Air Force Base

EXPIRED METARs :
  • 281656Z AUTO 08007KT 10SM BKN055 26/22 A2996 RMK AO2 SLP136 T02620220 PWINO $
  • 281556Z AUTO 08007KT 10SM BKN055 26/22 A2997 RMK AO2 SLP139 T02610219 PWINO $

TAF TAF PGUA
Valid from the 28 at 18:00 until the 30 at 00:00 UTC


281800Z 2818/2924 08010G15KT 9999 SCT020 BKN050 QNH2987INS
BECMG 2917/2918 08012G18KT 9000 -SHRA SCT015 BKN025 QNH2990INS
BECMG 2922/2924 08012G18KT 9999 NSW SCT025 QNH2994INS TX30/2903Z TN26/2818Z
PGZU FIR / Oceania



MET'MAP, your aeronautical weather chart ! - Copyright ORBIFLY December 2007 - Disclaimer

ORBIFLY MET'MAP TEAM :

Programming & Development : Alexandra Zaïnal
Concept & original design : Baudouin d'Aumeries
Assistance for programming : Marc-Olivier Méhu
Technical & hardware support : Manuel Goepfert

Contact : metmap@orbifly.com




SOURCES & CREDITS :

   NOAA       Earth
Advisory